sensor_id;sensor_type;location;lat;lon;timestamp;P1;durP1;ratioP1;P2;durP2;ratioP2
27161;SDS011;54464;50.558;9.704;2023-08-21T00:00:53;9.38;;;8.38;;
27161;SDS011;54464;50.558;9.704;2023-08-21T00:03:21;8.45;;;7.65;;
27161;SDS011;54464;50.558;9.704;2023-08-21T00:05:47;9.48;;;7.82;;
27161;SDS011;54464;50.558;9.704;2023-08-21T00:08:12;8.45;;;7.65;;
27161;SDS011;54464;50.558;9.704;2023-08-21T00:10:58;8.52;;;7.63;;
27161;SDS011;54464;50.558;9.704;2023-08-21T00:13:24;9.23;;;7.57;;
27161;SDS011;54464;50.558;9.704;2023-08-21T00:15:49;8.65;;;7.57;;
27161;SDS011;54464;50.558;9.704;2023-08-21T00:18:21;8.50;;;7.65;;
27161;SDS011;54464;50.558;9.704;2023-08-21T00:20:47;10.23;;;7.63;;
27161;SDS011;54464;50.558;9.704;2023-08-21T00:23:18;9.13;;;7.70;;
27161;SDS011;54464;50.558;9.704;2023-08-21T00:25:56;9.35;;;7.72;;
27161;SDS011;54464;50.558;9.704;2023-08-21T00:28:24;10.13;;;7.93;;
27161;SDS011;54464;50.558;9.704;2023-08-21T00:30:50;9.23;;;7.85;;
27161;SDS011;54464;50.558;9.704;2023-08-21T00:33:15;8.73;;;7.82;;
27161;SDS011;54464;50.558;9.704;2023-08-21T00:35:44;8.88;;;7.97;;
27161;SDS011;54464;50.558;9.704;2023-08-21T00:38:09;9.80;;;8.90;;
27161;SDS011;54464;50.558;9.704;2023-08-21T00:40:37;8.60;;;7.60;;
27161;SDS011;54464;50.558;9.704;2023-08-21T00:43:06;9.27;;;8.25;;
27161;SDS011;54464;50.558;9.704;2023-08-21T00:45:38;9.48;;;8.52;;
27161;SDS011;54464;50.558;9.704;2023-08-21T00:48:07;9.10;;;8.18;;
27161;SDS011;54464;50.558;9.704;2023-08-21T00:50:33;9.93;;;8.43;;
27161;SDS011;54464;50.558;9.704;2023-08-21T00:52:59;8.90;;;8.07;;
27161;SDS011;54464;50.558;9.704;2023-08-21T00:55:31;9.05;;;8.15;;
27161;SDS011;54464;50.558;9.704;2023-08-21T00:58:00;8.90;;;8.00;;
27161;SDS011;54464;50.558;9.704;2023-08-21T01:00:30;9.38;;;8.48;;
27161;SDS011;54464;50.558;9.704;2023-08-21T01:02:56;10.05;;;8.05;;
27161;SDS011;54464;50.558;9.704;2023-08-21T01:05:30;9.10;;;8.20;;
27161;SDS011;54464;50.558;9.704;2023-08-21T01:07:57;9.55;;;8.48;;
27161;SDS011;54464;50.558;9.704;2023-08-21T01:10:41;10.70;;;8.13;;
27161;SDS011;54464;50.558;9.704;2023-08-21T01:16:00;9.50;;;8.35;;
27161;SDS011;54464;50.558;9.704;2023-08-21T01:18:27;9.48;;;8.20;;
27161;SDS011;54464;50.558;9.704;2023-08-21T01:21:02;9.32;;;8.25;;
27161;SDS011;54464;50.558;9.704;2023-08-21T01:23:30;9.90;;;7.55;;
27161;SDS011;54464;50.558;9.704;2023-08-21T01:26:02;8.80;;;7.95;;
27161;SDS011;54464;50.558;9.704;2023-08-21T01:28:29;8.68;;;7.70;;
27161;SDS011;54464;50.558;9.704;2023-08-21T01:31:18;9.27;;;7.50;;
27161;SDS011;54464;50.558;9.704;2023-08-21T01:33:53;10.02;;;7.53;;
27161;SDS011;54464;50.558;9.704;2023-08-21T01:36:22;8.73;;;7.82;;
27161;SDS011;54464;50.558;9.704;2023-08-21T01:38:49;10.18;;;7.60;;
27161;SDS011;54464;50.558;9.704;2023-08-21T01:41:15;10.63;;;7.93;;
27161;SDS011;54464;50.558;9.704;2023-08-21T01:43:41;8.70;;;7.70;;
27161;SDS011;54464;50.558;9.704;2023-08-21T01:46:09;9.40;;;8.02;;
27161;SDS011;54464;50.558;9.704;2023-08-21T01:48:53;9.30;;;8.35;;
27161;SDS011;54464;50.558;9.704;2023-08-21T01:51:18;9.67;;;8.67;;
27161;SDS011;54464;50.558;9.704;2023-08-21T01:53:47;9.50;;;8.17;;
27161;SDS011;54464;50.558;9.704;2023-08-21T01:56:18;11.23;;;8.73;;
27161;SDS011;54464;50.558;9.704;2023-08-21T01:58:43;10.37;;;9.10;;
27161;SDS011;54464;50.558;9.704;2023-08-21T02:01:12;9.10;;;8.20;;
27161;SDS011;54464;50.558;9.704;2023-08-21T02:03:42;9.23;;;7.70;;
27161;SDS011;54464;50.558;9.704;2023-08-21T02:06:13;8.47;;;7.67;;
27161;SDS011;54464;50.558;9.704;2023-08-21T02:08:39;9.50;;;8.60;;
27161;SDS011;54464;50.558;9.704;2023-08-21T02:11:05;11.03;;;9.10;;
27161;SDS011;54464;50.558;9.704;2023-08-21T02:13:33;9.85;;;8.52;;
27161;SDS011;54464;50.558;9.704;2023-08-21T02:15:59;9.67;;;7.90;;
27161;SDS011;54464;50.558;9.704;2023-08-21T02:18:45;11.60;;;8.20;;
27161;SDS011;54464;50.558;9.704;2023-08-21T02:21:13;10.27;;;8.37;;
27161;SDS011;54464;50.558;9.704;2023-08-21T02:23:38;8.03;;;7.30;;
27161;SDS011;54464;50.558;9.704;2023-08-21T02:26:04;9.37;;;7.97;;
27161;SDS011;54464;50.558;9.704;2023-08-21T02:28:29;9.77;;;8.63;;
27161;SDS011;54464;50.558;9.704;2023-08-21T02:31:16;10.87;;;8.50;;
27161;SDS011;54464;50.558;9.704;2023-08-21T02:33:41;9.90;;;7.97;;
27161;SDS011;54464;50.558;9.704;2023-08-21T02:36:06;9.40;;;7.73;;
27161;SDS011;54464;50.558;9.704;2023-08-21T02:38:35;11.27;;;8.23;;
27161;SDS011;54464;50.558;9.704;2023-08-21T02:41:01;8.52;;;7.70;;
27161;SDS011;54464;50.558;9.704;2023-08-21T02:43:26;8.67;;;7.77;;
27161;SDS011;54464;50.558;9.704;2023-08-21T02:46:12;10.00;;;7.93;;
27161;SDS011;54464;50.558;9.704;2023-08-21T02:48:38;9.83;;;8.37;;
27161;SDS011;54464;50.558;9.704;2023-08-21T02:51:06;9.30;;;7.83;;
27161;SDS011;54464;50.558;9.704;2023-08-21T02:53:32;8.00;;;7.20;;
27161;SDS011;54464;50.558;9.704;2023-08-21T02:56:06;9.10;;;8.27;;
27161;SDS011;54464;50.558;9.704;2023-08-21T02:58:31;9.25;;;7.95;;
27161;SDS011;54464;50.558;9.704;2023-08-21T03:01:00;9.02;;;8.15;;
27161;SDS011;54464;50.558;9.704;2023-08-21T03:03:25;9.07;;;8.13;;
27161;SDS011;54464;50.558;9.704;2023-08-21T03:05:51;8.65;;;7.80;;
27161;SDS011;54464;50.558;9.704;2023-08-21T03:08:37;10.27;;;8.00;;
27161;SDS011;54464;50.558;9.704;2023-08-21T03:11:02;10.30;;;8.05;;
27161;SDS011;54464;50.558;9.704;2023-08-21T03:13:28;8.90;;;7.93;;
27161;SDS011;54464;50.558;9.704;2023-08-21T03:15:53;8.32;;;7.57;;
27161;SDS011;54464;50.558;9.704;2023-08-21T03:18:19;9.10;;;7.80;;
27161;SDS011;54464;50.558;9.704;2023-08-21T03:20:45;9.57;;;8.13;;
27161;SDS011;54464;50.558;9.704;2023-08-21T03:23:11;9.83;;;8.73;;
27161;SDS011;54464;50.558;9.704;2023-08-21T03:25:37;10.80;;;8.70;;
27161;SDS011;54464;50.558;9.704;2023-08-21T03:28:03;9.47;;;8.47;;
27161;SDS011;54464;50.558;9.704;2023-08-21T03:30:28;10.23;;;8.53;;
27161;SDS011;54464;50.558;9.704;2023-08-21T03:32:54;11.00;;;8.63;;
27161;SDS011;54464;50.558;9.704;2023-08-21T03:35:20;9.60;;;8.50;;
27161;SDS011;54464;50.558;9.704;2023-08-21T03:37:45;9.30;;;8.40;;
27161;SDS011;54464;50.558;9.704;2023-08-21T03:40:11;10.83;;;8.67;;
27161;SDS011;54464;50.558;9.704;2023-08-21T03:42:37;9.83;;;8.53;;
27161;SDS011;54464;50.558;9.704;2023-08-21T03:45:02;10.93;;;8.90;;
27161;SDS011;54464;50.558;9.704;2023-08-21T03:47:31;11.17;;;9.13;;
27161;SDS011;54464;50.558;9.704;2023-08-21T03:49:57;9.33;;;8.40;;
27161;SDS011;54464;50.558;9.704;2023-08-21T03:52:22;11.97;;;9.40;;
27161;SDS011;54464;50.558;9.704;2023-08-21T03:54:48;10.57;;;8.47;;
27161;SDS011;54464;50.558;9.704;2023-08-21T03:57:13;10.70;;;9.60;;
27161;SDS011;54464;50.558;9.704;2023-08-21T03:59:39;10.20;;;9.20;;
27161;SDS011;54464;50.558;9.704;2023-08-21T04:02:05;11.30;;;9.43;;
27161;SDS011;54464;50.558;9.704;2023-08-21T04:04:30;9.70;;;8.73;;
27161;SDS011;54464;50.558;9.704;2023-08-21T04:06:56;11.50;;;8.57;;
27161;SDS011;54464;50.558;9.704;2023-08-21T04:09:21;9.37;;;8.33;;
27161;SDS011;54464;50.558;9.704;2023-08-21T04:11:47;10.00;;;8.80;;
27161;SDS011;54464;50.558;9.704;2023-08-21T04:14:12;9.87;;;8.87;;
27161;SDS011;54464;50.558;9.704;2023-08-21T04:16:38;10.20;;;8.17;;
27161;SDS011;54464;50.558;9.704;2023-08-21T04:19:04;9.13;;;8.17;;
27161;SDS011;54464;50.558;9.704;2023-08-21T04:21:30;11.00;;;8.50;;
27161;SDS011;54464;50.558;9.704;2023-08-21T04:23:56;12.17;;;8.67;;
27161;SDS011;54464;50.558;9.704;2023-08-21T04:26:21;9.60;;;8.07;;
27161;SDS011;54464;50.558;9.704;2023-08-21T04:28:47;11.17;;;8.27;;
27161;SDS011;54464;50.558;9.704;2023-08-21T04:31:13;9.73;;;8.20;;
27161;SDS011;54464;50.558;9.704;2023-08-21T04:33:38;11.00;;;8.37;;
27161;SDS011;54464;50.558;9.704;2023-08-21T04:36:07;10.27;;;8.20;;
27161;SDS011;54464;50.558;9.704;2023-08-21T04:38:33;10.17;;;8.27;;
27161;SDS011;54464;50.558;9.704;2023-08-21T04:41:10;8.87;;;7.90;;
27161;SDS011;54464;50.558;9.704;2023-08-21T04:43:41;9.90;;;7.93;;
27161;SDS011;54464;50.558;9.704;2023-08-21T04:46:06;10.40;;;7.80;;
27161;SDS011;54464;50.558;9.704;2023-08-21T04:48:32;11.20;;;8.00;;
27161;SDS011;54464;50.558;9.704;2023-08-21T04:51:00;11.33;;;8.37;;
27161;SDS011;54464;50.558;9.704;2023-08-21T04:53:26;10.87;;;8.50;;
27161;SDS011;54464;50.558;9.704;2023-08-21T04:55:51;12.63;;;8.40;;
27161;SDS011;54464;50.558;9.704;2023-08-21T04:58:20;10.70;;;8.47;;
27161;SDS011;54464;50.558;9.704;2023-08-21T05:00:45;10.67;;;8.13;;
27161;SDS011;54464;50.558;9.704;2023-08-21T05:03:11;10.87;;;8.43;;
27161;SDS011;54464;50.558;9.704;2023-08-21T05:05:39;9.63;;;8.63;;
27161;SDS011;54464;50.558;9.704;2023-08-21T05:08:05;11.43;;;9.60;;
27161;SDS011;54464;50.558;9.704;2023-08-21T05:10:34;11.13;;;9.30;;
27161;SDS011;54464;50.558;9.704;2023-08-21T05:13:11;11.00;;;8.93;;
27161;SDS011;54464;50.558;9.704;2023-08-21T05:15:37;11.93;;;10.03;;
27161;SDS011;54464;50.558;9.704;2023-08-21T05:18:02;12.30;;;9.80;;
27161;SDS011;54464;50.558;9.704;2023-08-21T05:20:28;11.87;;;9.73;;
27161;SDS011;54464;50.558;9.704;2023-08-21T05:22:53;13.17;;;9.43;;
27161;SDS011;54464;50.558;9.704;2023-08-21T05:25:22;11.63;;;10.43;;
27161;SDS011;54464;50.558;9.704;2023-08-21T05:27:47;12.30;;;9.93;;
27161;SDS011;54464;50.558;9.704;2023-08-21T05:30:13;12.67;;;11.17;;
27161;SDS011;54464;50.558;9.704;2023-08-21T05:32:49;12.47;;;10.30;;
27161;SDS011;54464;50.558;9.704;2023-08-21T05:35:14;11.37;;;9.43;;
27161;SDS011;54464;50.558;9.704;2023-08-21T05:37:40;11.40;;;10.30;;
27161;SDS011;54464;50.558;9.704;2023-08-21T05:40:05;12.33;;;10.00;;
27161;SDS011;54464;50.558;9.704;2023-08-21T05:42:34;13.30;;;10.60;;
27161;SDS011;54464;50.558;9.704;2023-08-21T05:44:59;12.10;;;10.67;;
27161;SDS011;54464;50.558;9.704;2023-08-21T05:47:25;12.70;;;10.10;;
27161;SDS011;54464;50.558;9.704;2023-08-21T05:49:51;13.27;;;10.00;;
27161;SDS011;54464;50.558;9.704;2023-08-21T05:52:36;10.97;;;9.23;;
27161;SDS011;54464;50.558;9.704;2023-08-21T05:55:01;11.10;;;9.17;;
27161;SDS011;54464;50.558;9.704;2023-08-21T05:57:27;10.47;;;9.27;;
27161;SDS011;54464;50.558;9.704;2023-08-21T05:59:58;11.93;;;9.43;;
27161;SDS011;54464;50.558;9.704;2023-08-21T06:02:24;10.70;;;9.20;;
27161;SDS011;54464;50.558;9.704;2023-08-21T06:04:49;10.70;;;9.60;;
27161;SDS011;54464;50.558;9.704;2023-08-21T06:07:20;10.80;;;9.70;;
27161;SDS011;54464;50.558;9.704;2023-08-21T06:09:46;10.93;;;9.13;;
27161;SDS011;54464;50.558;9.704;2023-08-21T06:12:15;10.30;;;9.30;;
27161;SDS011;54464;50.558;9.704;2023-08-21T06:14:40;10.70;;;9.60;;
27161;SDS011;54464;50.558;9.704;2023-08-21T06:17:06;10.93;;;9.30;;
27161;SDS011;54464;50.558;9.704;2023-08-21T06:19:32;10.90;;;9.13;;
27161;SDS011;54464;50.558;9.704;2023-08-21T06:22:04;11.23;;;9.47;;
27161;SDS011;54464;50.558;9.704;2023-08-21T06:24:30;10.63;;;9.53;;
27161;SDS011;54464;50.558;9.704;2023-08-21T06:26:56;11.43;;;10.20;;
27161;SDS011;54464;50.558;9.704;2023-08-21T06:29:21;11.23;;;9.53;;
27161;SDS011;54464;50.558;9.704;2023-08-21T06:31:47;11.13;;;10.03;;
27161;SDS011;54464;50.558;9.704;2023-08-21T06:34:21;10.38;;;9.38;;
27161;SDS011;54464;50.558;9.704;2023-08-21T06:36:47;12.10;;;10.43;;
27161;SDS011;54464;50.558;9.704;2023-08-21T06:39:12;11.88;;;10.70;;
27161;SDS011;54464;50.558;9.704;2023-08-21T06:41:38;11.23;;;9.90;;
27161;SDS011;54464;50.558;9.704;2023-08-21T06:44:03;12.03;;;10.50;;
27161;SDS011;54464;50.558;9.704;2023-08-21T06:46:29;11.20;;;10.00;;
27161;SDS011;54464;50.558;9.704;2023-08-21T06:48:57;12.30;;;10.20;;
27161;SDS011;54464;50.558;9.704;2023-08-21T06:51:28;10.63;;;9.47;;
27161;SDS011;54464;50.558;9.704;2023-08-21T06:53:54;11.97;;;10.47;;
27161;SDS011;54464;50.558;9.704;2023-08-21T06:56:20;11.25;;;9.75;;
27161;SDS011;54464;50.558;9.704;2023-08-21T06:58:45;13.87;;;10.50;;
27161;SDS011;54464;50.558;9.704;2023-08-21T07:01:11;11.67;;;10.37;;
27161;SDS011;54464;50.558;9.704;2023-08-21T07:03:36;10.80;;;9.73;;
27161;SDS011;54464;50.558;9.704;2023-08-21T07:06:02;11.02;;;9.93;;
27161;SDS011;54464;50.558;9.704;2023-08-21T07:08:28;10.27;;;9.23;;
27161;SDS011;54464;50.558;9.704;2023-08-21T07:10:54;10.10;;;9.00;;
27161;SDS011;54464;50.558;9.704;2023-08-21T07:13:19;13.82;;;10.57;;
27161;SDS011;54464;50.558;9.704;2023-08-21T07:15:46;11.50;;;10.13;;
27161;SDS011;54464;50.558;9.704;2023-08-21T07:18:12;10.93;;;9.65;;
27161;SDS011;54464;50.558;9.704;2023-08-21T07:20:38;12.75;;;10.00;;
27161;SDS011;54464;50.558;9.704;2023-08-21T07:23:04;12.07;;;8.98;;
27161;SDS011;54464;50.558;9.704;2023-08-21T07:25:29;10.02;;;9.13;;
27161;SDS011;54464;50.558;9.704;2023-08-21T07:27:55;12.23;;;8.88;;
27161;SDS011;54464;50.558;9.704;2023-08-21T07:30:21;9.40;;;8.10;;
27161;SDS011;54464;50.558;9.704;2023-08-21T07:32:49;10.57;;;8.57;;
27161;SDS011;54464;50.558;9.704;2023-08-21T07:35:15;9.88;;;8.88;;
27161;SDS011;54464;50.558;9.704;2023-08-21T07:37:44;9.32;;;8.45;;
27161;SDS011;54464;50.558;9.704;2023-08-21T07:40:10;9.63;;;8.75;;
27161;SDS011;54464;50.558;9.704;2023-08-21T07:42:36;10.45;;;9.45;;
27161;SDS011;54464;50.558;9.704;2023-08-21T07:45:02;9.75;;;8.38;;
27161;SDS011;54464;50.558;9.704;2023-08-21T07:47:28;11.65;;;9.27;;
27161;SDS011;54464;50.558;9.704;2023-08-21T07:49:54;10.73;;;8.60;;
27161;SDS011;54464;50.558;9.704;2023-08-21T07:52:20;9.50;;;8.55;;
27161;SDS011;54464;50.558;9.704;2023-08-21T07:54:46;11.38;;;9.02;;
27161;SDS011;54464;50.558;9.704;2023-08-21T07:57:11;10.15;;;8.85;;
27161;SDS011;54464;50.558;9.704;2023-08-21T07:59:38;10.48;;;9.10;;
27161;SDS011;54464;50.558;9.704;2023-08-21T08:02:03;10.23;;;9.00;;
27161;SDS011;54464;50.558;9.704;2023-08-21T08:04:29;9.45;;;8.40;;
27161;SDS011;54464;50.558;9.704;2023-08-21T08:06:55;10.05;;;8.43;;
27161;SDS011;54464;50.558;9.704;2023-08-21T08:09:23;10.27;;;8.80;;
27161;SDS011;54464;50.558;9.704;2023-08-21T08:11:48;10.40;;;8.88;;
27161;SDS011;54464;50.558;9.704;2023-08-21T08:14:14;9.32;;;8.43;;
27161;SDS011;54464;50.558;9.704;2023-08-21T08:16:40;10.30;;;9.30;;
27161;SDS011;54464;50.558;9.704;2023-08-21T08:19:05;10.38;;;8.85;;
27161;SDS011;54464;50.558;9.704;2023-08-21T08:21:31;9.95;;;8.45;;
27161;SDS011;54464;50.558;9.704;2023-08-21T08:23:57;9.98;;;9.00;;
27161;SDS011;54464;50.558;9.704;2023-08-21T08:26:22;9.75;;;8.85;;
27161;SDS011;54464;50.558;9.704;2023-08-21T08:28:48;10.43;;;9.43;;
27161;SDS011;54464;50.558;9.704;2023-08-21T08:31:17;10.35;;;8.93;;
27161;SDS011;54464;50.558;9.704;2023-08-21T08:33:43;9.63;;;8.73;;
27161;SDS011;54464;50.558;9.704;2023-08-21T08:36:09;10.45;;;9.43;;
27161;SDS011;54464;50.558;9.704;2023-08-21T08:38:34;10.05;;;9.05;;
27161;SDS011;54464;50.558;9.704;2023-08-21T08:41:01;10.75;;;9.13;;
27161;SDS011;54464;50.558;9.704;2023-08-21T08:43:29;9.60;;;8.60;;
27161;SDS011;54464;50.558;9.704;2023-08-21T08:45:57;9.80;;;8.80;;
27161;SDS011;54464;50.558;9.704;2023-08-21T08:48:25;12.00;;;9.32;;
27161;SDS011;54464;50.558;9.704;2023-08-21T08:50:51;10.00;;;9.00;;
27161;SDS011;54464;50.558;9.704;2023-08-21T08:53:17;10.10;;;9.10;;
27161;SDS011;54464;50.558;9.704;2023-08-21T08:55:44;9.68;;;8.75;;
27161;SDS011;54464;50.558;9.704;2023-08-21T08:58:10;10.18;;;8.80;;
27161;SDS011;54464;50.558;9.704;2023-08-21T09:00:36;9.45;;;8.38;;
27161;SDS011;54464;50.558;9.704;2023-08-21T09:03:02;9.77;;;8.88;;
27161;SDS011;54464;50.558;9.704;2023-08-21T09:05:28;9.70;;;8.80;;
27161;SDS011;54464;50.558;9.704;2023-08-21T09:10:49;9.77;;;8.77;;
27161;SDS011;54464;50.558;9.704;2023-08-21T09:13:18;10.73;;;9.07;;
27161;SDS011;54464;50.558;9.704;2023-08-21T09:15:46;9.18;;;8.38;;
27161;SDS011;54464;50.558;9.704;2023-08-21T09:18:17;9.38;;;8.43;;
27161;SDS011;54464;50.558;9.704;2023-08-21T09:20:44;10.63;;;8.98;;
27161;SDS011;54464;50.558;9.704;2023-08-21T09:23:13;8.98;;;8.07;;
27161;SDS011;54464;50.558;9.704;2023-08-21T09:25:41;9.65;;;8.70;;
27161;SDS011;54464;50.558;9.704;2023-08-21T09:28:14;8.88;;;7.97;;
27161;SDS011;54464;50.558;9.704;2023-08-21T09:30:52;9.38;;;8.50;;
27161;SDS011;54464;50.558;9.704;2023-08-21T09:33:22;10.93;;;8.25;;
27161;SDS011;54464;50.558;9.704;2023-08-21T09:35:49;8.95;;;8.05;;
27161;SDS011;54464;50.558;9.704;2023-08-21T09:38:17;9.20;;;8.30;;
27161;SDS011;54464;50.558;9.704;2023-08-21T09:40:50;9.55;;;7.85;;
27161;SDS011;54464;50.558;9.704;2023-08-21T09:43:16;8.05;;;7.10;;
27161;SDS011;54464;50.558;9.704;2023-08-21T09:45:45;8.32;;;6.82;;
27161;SDS011;54464;50.558;9.704;2023-08-21T09:48:11;7.47;;;6.78;;
27161;SDS011;54464;50.558;9.704;2023-08-21T09:50:38;9.68;;;7.55;;
27161;SDS011;54464;50.558;9.704;2023-08-21T09:53:05;8.60;;;7.70;;
27161;SDS011;54464;50.558;9.704;2023-08-21T09:55:32;7.85;;;7.05;;
27161;SDS011;54464;50.558;9.704;2023-08-21T09:57:58;7.55;;;6.22;;
27161;SDS011;54464;50.558;9.704;2023-08-21T10:00:30;7.07;;;6.38;;
27161;SDS011;54464;50.558;9.704;2023-08-21T10:03:03;7.20;;;6.03;;
27161;SDS011;54464;50.558;9.704;2023-08-21T10:05:33;6.65;;;5.95;;
27161;SDS011;54464;50.558;9.704;2023-08-21T10:08:00;8.52;;;6.00;;
27161;SDS011;54464;50.558;9.704;2023-08-21T10:10:31;6.22;;;5.63;;
27161;SDS011;54464;50.558;9.704;2023-08-21T10:12:58;9.85;;;6.10;;
27161;SDS011;54464;50.558;9.704;2023-08-21T10:15:25;6.60;;;5.97;;
27161;SDS011;54464;50.558;9.704;2023-08-21T10:17:53;7.03;;;6.07;;
27161;SDS011;54464;50.558;9.704;2023-08-21T10:20:22;7.45;;;6.20;;
27161;SDS011;54464;50.558;9.704;2023-08-21T10:22:50;7.13;;;4.97;;
27161;SDS011;54464;50.558;9.704;2023-08-21T10:25:23;6.10;;;5.50;;
27161;SDS011;54464;50.558;9.704;2023-08-21T10:27:57;6.82;;;5.82;;
27161;SDS011;54464;50.558;9.704;2023-08-21T10:30:25;9.43;;;5.90;;
27161;SDS011;54464;50.558;9.704;2023-08-21T10:32:53;5.32;;;4.75;;
27161;SDS011;54464;50.558;9.704;2023-08-21T10:35:21;6.93;;;4.90;;
27161;SDS011;54464;50.558;9.704;2023-08-21T10:40:38;4.30;;;3.90;;
27161;SDS011;54464;50.558;9.704;2023-08-21T10:43:04;6.28;;;3.60;;
27161;SDS011;54464;50.558;9.704;2023-08-21T10:45:53;4.32;;;3.83;;
27161;SDS011;54464;50.558;9.704;2023-08-21T10:48:20;4.72;;;3.78;;
27161;SDS011;54464;50.558;9.704;2023-08-21T10:50:46;3.60;;;3.30;;
27161;SDS011;54464;50.558;9.704;2023-08-21T10:53:12;4.13;;;3.70;;
27161;SDS011;54464;50.558;9.704;2023-08-21T10:55:38;3.80;;;3.38;;
27161;SDS011;54464;50.558;9.704;2023-08-21T10:58:04;3.70;;;3.30;;
27161;SDS011;54464;50.558;9.704;2023-08-21T11:00:29;5.10;;;3.50;;
27161;SDS011;54464;50.558;9.704;2023-08-21T11:02:55;3.85;;;3.45;;
27161;SDS011;54464;50.558;9.704;2023-08-21T11:05:21;5.70;;;3.75;;
27161;SDS011;54464;50.558;9.704;2023-08-21T11:07:47;5.60;;;3.97;;
27161;SDS011;54464;50.558;9.704;2023-08-21T11:10:14;4.28;;;3.58;;
27161;SDS011;54464;50.558;9.704;2023-08-21T11:12:52;6.05;;;4.00;;
27161;SDS011;54464;50.558;9.704;2023-08-21T11:15:20;4.85;;;4.32;;
27161;SDS011;54464;50.558;9.704;2023-08-21T11:17:59;4.50;;;4.10;;
27161;SDS011;54464;50.558;9.704;2023-08-21T11:20:31;4.22;;;3.83;;
27161;SDS011;54464;50.558;9.704;2023-08-21T11:22:58;5.45;;;4.05;;
27161;SDS011;54464;50.558;9.704;2023-08-21T11:25:27;4.32;;;3.90;;
27161;SDS011;54464;50.558;9.704;2023-08-21T11:27:53;5.05;;;3.70;;
27161;SDS011;54464;50.558;9.704;2023-08-21T11:30:21;6.93;;;4.80;;
27161;SDS011;54464;50.558;9.704;2023-08-21T11:32:47;4.30;;;3.80;;
27161;SDS011;54464;50.558;9.704;2023-08-21T11:35:13;4.72;;;4.13;;
27161;SDS011;54464;50.558;9.704;2023-08-21T11:37:43;5.65;;;4.28;;
27161;SDS011;54464;50.558;9.704;2023-08-21T11:40:12;8.45;;;3.90;;
27161;SDS011;54464;50.558;9.704;2023-08-21T11:42:39;5.35;;;3.85;;
27161;SDS011;54464;50.558;9.704;2023-08-21T11:45:05;4.53;;;4.03;;
27161;SDS011;54464;50.558;9.704;2023-08-21T11:47:32;4.75;;;3.50;;
27161;SDS011;54464;50.558;9.704;2023-08-21T11:50:03;5.53;;;4.05;;
27161;SDS011;54464;50.558;9.704;2023-08-21T11:52:30;5.13;;;3.83;;
27161;SDS011;54464;50.558;9.704;2023-08-21T11:54:57;5.03;;;3.95;;
27161;SDS011;54464;50.558;9.704;2023-08-21T11:57:23;4.53;;;3.72;;
27161;SDS011;54464;50.558;9.704;2023-08-21T11:59:53;4.13;;;3.80;;
27161;SDS011;54464;50.558;9.704;2023-08-21T12:02:23;5.03;;;3.50;;
27161;SDS011;54464;50.558;9.704;2023-08-21T12:05:05;4.45;;;3.90;;
27161;SDS011;54464;50.558;9.704;2023-08-21T12:07:39;5.28;;;4.03;;
27161;SDS011;54464;50.558;9.704;2023-08-21T12:10:05;4.78;;;4.00;;
27161;SDS011;54464;50.558;9.704;2023-08-21T12:12:31;5.40;;;4.00;;
27161;SDS011;54464;50.558;9.704;2023-08-21T12:14:57;4.88;;;3.22;;
27161;SDS011;54464;50.558;9.704;2023-08-21T12:17:22;3.80;;;3.50;;
27161;SDS011;54464;50.558;9.704;2023-08-21T12:19:48;4.25;;;3.85;;
27161;SDS011;54464;50.558;9.704;2023-08-21T12:22:13;4.55;;;3.42;;
27161;SDS011;54464;50.558;9.704;2023-08-21T12:24:39;3.70;;;3.35;;
27161;SDS011;54464;50.558;9.704;2023-08-21T12:27:05;4.22;;;3.72;;
27161;SDS011;54464;50.558;9.704;2023-08-21T12:29:31;3.45;;;3.15;;
27161;SDS011;54464;50.558;9.704;2023-08-21T12:31:57;4.22;;;3.65;;
27161;SDS011;54464;50.558;9.704;2023-08-21T12:34:22;4.38;;;3.50;;
27161;SDS011;54464;50.558;9.704;2023-08-21T12:36:50;5.32;;;3.72;;
27161;SDS011;54464;50.558;9.704;2023-08-21T12:39:16;5.30;;;3.63;;
27161;SDS011;54464;50.558;9.704;2023-08-21T12:41:42;4.65;;;3.45;;
27161;SDS011;54464;50.558;9.704;2023-08-21T12:44:08;4.13;;;3.72;;
27161;SDS011;54464;50.558;9.704;2023-08-21T12:46:34;3.72;;;3.30;;
27161;SDS011;54464;50.558;9.704;2023-08-21T12:49:00;3.78;;;3.40;;
27161;SDS011;54464;50.558;9.704;2023-08-21T12:51:27;4.47;;;3.40;;
27161;SDS011;54464;50.558;9.704;2023-08-21T12:53:53;4.90;;;3.67;;
27161;SDS011;54464;50.558;9.704;2023-08-21T12:56:19;4.47;;;3.67;;
27161;SDS011;54464;50.558;9.704;2023-08-21T12:58:45;4.68;;;3.55;;
27161;SDS011;54464;50.558;9.704;2023-08-21T13:01:11;3.92;;;3.30;;
27161;SDS011;54464;50.558;9.704;2023-08-21T13:03:37;3.42;;;3.13;;
27161;SDS011;54464;50.558;9.704;2023-08-21T13:06:03;4.00;;;2.90;;
27161;SDS011;54464;50.558;9.704;2023-08-21T13:08:29;3.20;;;2.90;;
27161;SDS011;54464;50.558;9.704;2023-08-21T13:10:55;4.88;;;3.10;;
27161;SDS011;54464;50.558;9.704;2023-08-21T13:13:20;3.75;;;2.83;;
27161;SDS011;54464;50.558;9.704;2023-08-21T13:15:46;2.83;;;2.58;;
27161;SDS011;54464;50.558;9.704;2023-08-21T13:18:12;5.55;;;2.90;;
27161;SDS011;54464;50.558;9.704;2023-08-21T13:20:39;5.47;;;2.90;;
27161;SDS011;54464;50.558;9.704;2023-08-21T13:23:08;3.17;;;2.88;;
27161;SDS011;54464;50.558;9.704;2023-08-21T13:25:34;2.85;;;2.50;;
27161;SDS011;54464;50.558;9.704;2023-08-21T13:28:00;2.78;;;2.58;;
27161;SDS011;54464;50.558;9.704;2023-08-21T13:30:27;4.00;;;2.85;;
27161;SDS011;54464;50.558;9.704;2023-08-21T13:32:52;2.97;;;2.72;;
27161;SDS011;54464;50.558;9.704;2023-08-21T13:35:19;4.35;;;2.63;;
27161;SDS011;54464;50.558;9.704;2023-08-21T13:37:45;3.28;;;2.97;;
27161;SDS011;54464;50.558;9.704;2023-08-21T13:40:11;3.13;;;2.83;;
27161;SDS011;54464;50.558;9.704;2023-08-21T13:42:39;3.58;;;3.28;;
27161;SDS011;54464;50.558;9.704;2023-08-21T13:45:07;3.35;;;2.70;;
27161;SDS011;54464;50.558;9.704;2023-08-21T13:47:40;3.17;;;2.83;;
27161;SDS011;54464;50.558;9.704;2023-08-21T13:50:13;3.88;;;2.72;;
27161;SDS011;54464;50.558;9.704;2023-08-21T13:52:40;3.10;;;2.80;;
27161;SDS011;54464;50.558;9.704;2023-08-21T13:55:07;2.90;;;2.60;;
27161;SDS011;54464;50.558;9.704;2023-08-21T13:57:34;5.63;;;2.85;;
27161;SDS011;54464;50.558;9.704;2023-08-21T14:00:00;2.63;;;2.42;;
27161;SDS011;54464;50.558;9.704;2023-08-21T14:02:26;2.80;;;2.60;;
27161;SDS011;54464;50.558;9.704;2023-08-21T14:04:52;3.65;;;2.70;;
27161;SDS011;54464;50.558;9.704;2023-08-21T14:07:18;2.22;;;2.03;;
27161;SDS011;54464;50.558;9.704;2023-08-21T14:09:43;2.97;;;2.20;;
27161;SDS011;54464;50.558;9.704;2023-08-21T14:12:09;3.92;;;2.15;;
27161;SDS011;54464;50.558;9.704;2023-08-21T14:14:35;2.30;;;2.10;;
27161;SDS011;54464;50.558;9.704;2023-08-21T14:17:01;6.65;;;2.20;;
27161;SDS011;54464;50.558;9.704;2023-08-21T14:19:28;2.03;;;1.70;;
27161;SDS011;54464;50.558;9.704;2023-08-21T14:21:54;1.88;;;1.77;;
27161;SDS011;54464;50.558;9.704;2023-08-21T14:24:19;2.10;;;1.60;;
27161;SDS011;54464;50.558;9.704;2023-08-21T14:26:45;2.22;;;1.60;;
27161;SDS011;54464;50.558;9.704;2023-08-21T14:29:11;2.05;;;1.95;;
27161;SDS011;54464;50.558;9.704;2023-08-21T14:31:39;3.70;;;1.88;;
27161;SDS011;54464;50.558;9.704;2023-08-21T14:34:05;2.35;;;1.70;;
27161;SDS011;54464;50.558;9.704;2023-08-21T14:36:30;2.17;;;1.80;;
27161;SDS011;54464;50.558;9.704;2023-08-21T14:38:56;3.35;;;2.17;;
27161;SDS011;54464;50.558;9.704;2023-08-21T14:41:21;1.88;;;1.70;;
27161;SDS011;54464;50.558;9.704;2023-08-21T14:43:47;1.83;;;1.73;;
27161;SDS011;54464;50.558;9.704;2023-08-21T14:46:15;1.70;;;1.55;;
27161;SDS011;54464;50.558;9.704;2023-08-21T14:48:40;2.08;;;1.88;;
27161;SDS011;54464;50.558;9.704;2023-08-21T14:51:06;1.88;;;1.65;;
27161;SDS011;54464;50.558;9.704;2023-08-21T14:53:31;1.90;;;1.70;;